Time;durP1;ratioP1;P1;durP2;ratioP2;P2;SDS_P1;SDS_P2;PMS_P1;PMS_P2;Temp;Humidity;BMP_temperature;BMP_pressure;BME280_temperature;BME280_humidity;BME280_pressure;Samples;Min_cycle;Max_cycle;Signal;HPM_P1;HPM_P2
2023/11/01 00:01:56;;;;;;;3.28;1.73;;;23.20;66.30;;;;;;10433457;28;20242;-53
2023/11/01 00:07:00;;;;;;;2.53;1.50;;;23.20;66.30;;;;;;10451528;28;20251;-52
2023/11/01 00:12:04;;;;;;;2.95;1.50;;;23.20;66.30;;;;;;10447469;28;20306;-49
2023/11/01 00:17:09;;;;;;;2.90;1.77;;;23.30;66.40;;;;;;10442850;28;20282;-51
2023/11/01 00:22:13;;;;;;;3.10;1.73;;;23.20;66.30;;;;;;10443961;28;20679;-52
2023/11/01 00:27:17;;;;;;;2.92;1.80;;;23.20;66.30;;;;;;10438475;28;20281;-52
2023/11/01 00:32:22;;;;;;;3.22;1.55;;;23.30;66.40;;;;;;10435434;28;20299;-51
2023/11/01 00:37:25;;;;;;;2.15;1.40;;;23.20;66.20;;;;;;10434695;28;20247;-52
2023/11/01 00:42:29;;;;;;;1.80;1.55;;;23.20;66.30;;;;;;10428900;28;20300;-53
2023/11/01 00:47:34;;;;;;;3.65;1.52;;;23.20;66.20;;;;;;10424718;28;20251;-51
2023/11/01 00:52:38;;;;;;;1.73;1.42;;;23.20;67.10;;;;;;10436878;28;20259;-50
2023/11/01 00:57:42;;;;;;;3.42;1.50;;;23.20;66.20;;;;;;10431746;28;20255;-51
2023/11/01 01:02:48;;;;;;;2.92;1.50;;;23.20;66.20;;;;;;10436923;28;20222;-51
2023/11/01 01:07:52;;;;;;;2.00;1.48;;;23.20;66.20;;;;;;10425232;28;20246;-53
2023/11/01 01:12:56;;;;;;;1.98;1.40;;;23.20;66.20;;;;;;10435018;28;20285;-52
2023/11/01 01:18:01;;;;;;;2.33;1.50;;;23.20;66.20;;;;;;10433766;28;20250;-52
2023/11/01 01:23:04;;;;;;;1.80;1.40;;;23.20;66.20;;;;;;10428595;28;20680;-51
2023/11/01 01:28:08;;;;;;;2.33;1.50;;;23.20;66.20;;;;;;10438455;28;20247;-52
2023/11/01 01:33:13;;;;;;;2.13;1.40;;;23.20;66.20;;;;;;10440924;28;20606;-53
2023/11/01 01:38:17;;;;;;;2.38;1.58;;;23.20;66.20;;;;;;10429290;28;20243;-51
2023/11/01 01:43:22;;;;;;;2.42;1.50;;;23.20;66.20;;;;;;10435678;28;20208;-51
2023/11/01 01:48:27;;;;;;;1.52;1.27;;;23.20;66.20;;;;;;10436529;28;20297;-49
2023/11/01 01:53:32;;;;;;;2.60;1.80;;;23.20;66.20;;;;;;10439079;28;20690;-51
2023/11/01 01:58:38;;;;;;;3.15;1.60;;;23.20;66.20;;;;;;10453065;28;20270;-54
2023/11/01 02:03:43;;;;;;;2.28;1.52;;;23.20;66.20;;;;;;10443326;28;20204;-50
2023/11/01 02:08:47;;;;;;;2.22;1.30;;;23.20;66.20;;;;;;10446866;28;20239;-52
2023/11/01 02:13:51;;;;;;;2.00;1.23;;;23.20;66.10;;;;;;10444658;28;20297;-52
2023/11/01 02:18:56;;;;;;;1.63;1.17;;;23.20;66.20;;;;;;10444716;28;20251;-52
2023/11/01 02:24:01;;;;;;;1.73;1.35;;;23.20;66.10;;;;;;10440205;28;20317;-52
2023/11/01 02:29:05;;;;;;;2.45;1.20;;;23.20;66.20;;;;;;10444206;28;20711;-54
2023/11/01 02:34:09;;;;;;;1.58;1.00;;;23.20;66.90;;;;;;10444683;28;20240;-51
2023/11/01 02:39:14;;;;;;;2.65;1.65;;;23.20;66.10;;;;;;10441849;28;20270;-53
2023/11/01 02:44:18;;;;;;;2.03;1.48;;;23.20;66.10;;;;;;10442426;28;20700;-54
2023/11/01 02:49:22;;;;;;;2.85;1.40;;;23.20;66.10;;;;;;10442739;28;20250;-55
2023/11/01 02:54:27;;;;;;;3.10;1.40;;;23.20;66.10;;;;;;10445143;28;20243;-52
2023/11/01 02:59:30;;;;;;;1.77;1.20;;;23.20;66.10;;;;;;10449520;28;20441;-52
2023/11/01 03:04:34;;;;;;;2.90;1.60;;;23.20;66.10;;;;;;10439360;28;20231;-52
2023/11/01 03:09:39;;;;;;;1.38;1.27;;;23.20;66.10;;;;;;10433284;28;20764;-54
2023/11/01 03:14:42;;;;;;;1.70;1.20;;;23.20;66.10;;;;;;10431657;28;20255;-51
2023/11/01 03:19:46;;;;;;;2.53;1.45;;;23.20;66.10;;;;;;10439940;28;20410;-54
2023/11/01 03:24:51;;;;;;;2.20;1.33;;;23.20;66.00;;;;;;10436943;28;20328;-52
2023/11/01 03:29:56;;;;;;;2.90;1.27;;;23.20;66.10;;;;;;10443944;28;20695;-52
2023/11/01 03:34:59;;;;;;;2.33;1.50;;;23.20;66.10;;;;;;10441435;28;20250;-53
2023/11/01 03:40:05;;;;;;;1.45;1.25;;;23.20;66.10;;;;;;10434004;28;20250;-52
2023/11/01 03:45:09;;;;;;;2.15;1.20;;;23.20;66.10;;;;;;10435570;28;20219;-53
2023/11/01 03:50:13;;;;;;;2.75;1.25;;;23.20;66.10;;;;;;10438674;28;20269;-53
2023/11/01 03:55:18;;;;;;;1.58;1.08;;;23.20;66.10;;;;;;10428544;28;20813;-53
2023/11/01 04:00:22;;;;;;;2.25;1.25;;;23.20;66.00;;;;;;10438685;28;20231;-51
2023/11/01 04:05:25;;;;;;;2.03;1.20;;;23.20;66.10;;;;;;10447174;28;20296;-50
2023/11/01 04:10:30;;;;;;;1.38;1.27;;;23.20;66.00;;;;;;10450633;28;20260;-52
2023/11/01 04:15:34;;;;;;;1.77;1.13;;;23.20;66.10;;;;;;10449536;28;20255;-52
2023/11/01 04:20:38;;;;;;;3.30;1.17;;;23.20;66.00;;;;;;10449332;28;20869;-51
2023/11/01 04:25:42;;;;;;;1.85;1.15;;;23.20;66.00;;;;;;10447771;28;20277;-53
2023/11/01 04:30:46;;;;;;;1.35;0.88;;;23.20;66.00;;;;;;10446231;28;20227;-51
2023/11/01 04:35:53;;;;;;;2.17;1.20;;;23.20;66.00;;;;;;10441000;28;20269;-51
2023/11/01 04:40:58;;;;;;;1.35;1.00;;;23.20;66.00;;;;;;10428096;28;20231;-52
2023/11/01 04:46:02;;;;;;;1.23;1.00;;;23.20;66.00;;;;;;10428267;28;20343;-53
2023/11/01 04:51:05;;;;;;;2.25;1.25;;;23.20;66.00;;;;;;10429935;28;20251;-51
2023/11/01 04:56:11;;;;;;;2.65;0.90;;;23.20;66.10;;;;;;10438724;28;20259;-50
2023/11/01 05:01:15;;;;;;;1.67;0.75;;;23.20;66.00;;;;;;10450124;28;20203;-50
2023/11/01 05:06:18;;;;;;;1.50;1.10;;;23.20;66.00;;;;;;10433919;28;20285;-51
2023/11/01 05:11:23;;;;;;;2.25;1.10;;;23.20;66.00;;;;;;10434515;28;20880;-50
2023/11/01 05:16:27;;;;;;;2.55;1.02;;;23.20;66.00;;;;;;10428979;28;20270;-51
2023/11/01 05:21:30;;;;;;;1.05;0.85;;;23.20;66.00;;;;;;10429863;28;20285;-53
2023/11/01 05:26:35;;;;;;;1.90;1.00;;;23.20;66.00;;;;;;10430999;28;20271;-51
2023/11/01 05:31:39;;;;;;;1.25;1.02;;;23.20;66.00;;;;;;10435616;28;20222;-51
2023/11/01 05:36:43;;;;;;;1.67;0.90;;;23.20;66.00;;;;;;10435482;28;20250;-51
2023/11/01 05:41:51;;;;;;;1.65;1.08;;;23.20;66.00;;;;;;10428600;28;20231;-50
2023/11/01 05:46:57;;;;;;;1.00;0.90;;;23.20;66.00;;;;;;10440390;28;20242;-50
2023/11/01 05:52:01;;;;;;;1.10;0.90;;;23.20;66.00;;;;;;10431684;28;20284;-51
2023/11/01 05:57:08;;;;;;;1.15;0.90;;;23.20;66.00;;;;;;10433239;28;20316;-52
2023/11/01 06:02:12;;;;;;;1.45;0.80;;;23.20;66.00;;;;;;10437369;28;20280;-51
2023/11/01 06:07:16;;;;;;;2.13;1.10;;;23.20;66.00;;;;;;10439384;28;20301;-52
2023/11/01 06:12:21;;;;;;;1.40;0.90;;;23.20;66.00;;;;;;10445418;28;20242;-52
2023/11/01 06:17:25;;;;;;;1.58;0.82;;;23.20;66.00;;;;;;10448301;28;20681;-49
2023/11/01 06:22:28;;;;;;;12.63;1.52;;;23.20;66.00;;;;;;10439363;28;20247;-52
2023/11/01 06:27:33;;;;;;;7.93;1.33;;;23.20;66.00;;;;;;10447971;28;20598;-51
2023/11/01 06:32:37;;;;;;;7.13;1.23;;;23.20;66.00;;;;;;10446027;28;20285;-53
2023/11/01 06:37:41;;;;;;;7.75;1.35;;;23.30;66.00;;;;;;10439217;28;20296;-52
2023/11/01 06:42:45;;;;;;;3.25;0.82;;;23.20;65.90;;;;;;10436857;28;20235;-55
2023/11/01 06:47:49;;;;;;;3.85;1.05;;;23.20;66.00;;;;;;10439993;28;20301;-54
2023/11/01 06:52:53;;;;;;;5.18;1.05;;;23.20;66.00;;;;;;10440519;28;20208;-54
2023/11/01 06:57:58;;;;;;;1.73;0.73;;;23.20;66.00;;;;;;10439694;28;20247;-52
2023/11/01 07:03:01;;;;;;;5.13;1.30;;;23.20;66.00;;;;;;10437218;28;20223;-50
2023/11/01 07:08:05;;;;;;;3.45;1.25;;;23.10;65.00;;;;;;10439489;28;20254;-48
2023/11/01 07:13:11;;;;;;;3.90;1.45;;;22.80;64.40;;;;;;10451761;28;20218;-47
2023/11/01 07:18:15;;;;;;;3.78;1.33;;;22.70;64.50;;;;;;10443790;28;20383;-47
2023/11/01 07:23:19;;;;;;;3.55;1.48;;;22.70;64.80;;;;;;10451956;28;20199;-49
2023/11/01 07:28:24;;;;;;;4.18;1.20;;;22.80;64.90;;;;;;10448215;28;20212;-49
2023/11/01 07:33:27;;;;;;;3.88;1.40;;;22.80;65.00;;;;;;10447263;28;20199;-46
2023/11/01 07:38:31;;;;;;;4.05;1.65;;;22.90;65.10;;;;;;10435052;28;20251;-49
2023/11/01 07:43:37;;;;;;;4.85;1.30;;;22.90;65.10;;;;;;10446920;28;20679;-49
2023/11/01 07:48:41;;;;;;;4.63;1.38;;;22.90;65.10;;;;;;10435898;28;20323;-46
2023/11/01 07:53:44;;;;;;;5.65;1.73;;;23.00;65.30;;;;;;10437112;28;20261;-49
2023/11/01 07:58:50;;;;;;;5.28;1.75;;;23.00;65.30;;;;;;10439480;28;20251;-47
2023/11/01 08:03:53;;;;;;;8.07;1.95;;;23.10;65.40;;;;;;10445806;28;20253;-50
2023/11/01 08:08:58;;;;;;;6.30;1.90;;;23.20;65.40;;;;;;10435958;28;20255;-54
2023/11/01 08:14:06;;;;;;;7.38;1.83;;;23.20;65.40;;;;;;10436457;28;21258;-53
2023/11/01 08:19:10;;;;;;;4.43;1.50;;;23.30;65.50;;;;;;10440475;28;20251;-59
2023/11/01 08:24:13;;;;;;;3.83;1.40;;;23.30;65.50;;;;;;10437375;28;20752;-59
2023/11/01 08:29:18;;;;;;;2.25;1.27;;;23.30;65.50;;;;;;10436607;28;20243;-58
2023/11/01 08:34:22;;;;;;;4.53;1.73;;;23.30;65.60;;;;;;10436604;28;20306;-57
2023/11/01 08:39:26;;;;;;;4.65;1.35;;;23.30;65.60;;;;;;10437021;28;20742;-59
2023/11/01 08:44:30;;;;;;;3.33;1.23;;;23.20;65.50;;;;;;10430098;28;20223;-56
2023/11/01 08:49:34;;;;;;;3.70;1.55;;;23.20;65.50;;;;;;10435576;28;20688;-57
2023/11/01 08:54:40;;;;;;;3.42;1.50;;;23.20;65.60;;;;;;10441790;28;20251;-57
2023/11/01 08:59:45;;;;;;;4.65;1.13;;;23.20;65.60;;;;;;10433018;28;20299;-59
2023/11/01 09:04:48;;;;;;;3.10;1.23;;;23.20;65.60;;;;;;10435061;28;20226;-58
2023/11/01 09:09:53;;;;;;;2.10;1.23;;;23.20;65.60;;;;;;10440014;28;20259;-58
2023/11/01 09:15:00;;;;;;;3.30;1.05;;;23.20;65.60;;;;;;10438740;28;20299;-57
2023/11/01 09:20:04;;;;;;;3.20;1.42;;;23.20;65.60;;;;;;10437818;28;20726;-58
2023/11/01 09:25:08;;;;;;;3.47;1.38;;;23.20;65.60;;;;;;10427546;28;20220;-59
2023/11/01 09:30:13;;;;;;;4.63;1.35;;;23.20;65.60;;;;;;10435165;28;20668;-60
2023/11/01 09:35:17;;;;;;;11.40;1.83;;;23.20;65.60;;;;;;10434813;28;20266;-54
2023/11/01 09:40:21;;;;;;;8.40;2.10;;;23.30;65.90;;;;;;10428224;28;20241;-55
2023/11/01 09:45:26;;;;;;;5.13;1.33;;;23.30;65.80;;;;;;10447417;28;20305;-54
2023/11/01 09:50:35;;;;;;;2.72;1.27;;;23.30;65.90;;;;;;10439374;28;20258;-57
2023/11/01 09:55:39;;;;;;;4.82;1.40;;;23.30;65.90;;;;;;10429465;28;20297;-54
2023/11/01 10:00:44;;;;;;;4.70;1.42;;;23.30;65.90;;;;;;10441988;28;20272;-55
2023/11/01 10:05:47;;;;;;;3.33;1.50;;;23.30;65.90;;;;;;10442266;28;20274;-52
2023/11/01 10:10:51;;;;;;;5.13;1.40;;;23.30;65.90;;;;;;10443002;28;20247;-56
2023/11/01 10:15:56;;;;;;;3.83;1.13;;;23.30;65.90;;;;;;10445077;28;20309;-54
2023/11/01 10:21:00;;;;;;;5.28;1.08;;;23.30;65.90;;;;;;10448299;28;20623;-52
2023/11/01 10:26:05;;;;;;;4.38;1.13;;;23.20;66.60;;;;;;10442987;28;20256;-55
2023/11/01 10:31:13;;;;;;;3.13;1.05;;;23.30;65.90;;;;;;10447722;28;20200;-57
2023/11/01 10:36:19;;;;;;;1.55;1.10;;;23.20;65.80;;;;;;10446320;28;20308;-54
2023/11/01 10:41:25;;;;;;;2.20;1.10;;;23.30;66.00;;;;;;10448195;28;20777;-52
2023/11/01 10:46:30;;;;;;;2.17;1.00;;;23.30;65.90;;;;;;10442524;28;20559;-51
2023/11/01 10:51:36;;;;;;;2.88;1.20;;;23.20;65.80;;;;;;10447747;28;20224;-55
2023/11/01 10:56:40;;;;;;;3.25;1.30;;;23.30;65.90;;;;;;10458295;28;20227;-51
2023/11/01 11:01:51;;;;;;;2.35;1.20;;;23.30;65.90;;;;;;10464805;28;20253;-54
2023/11/01 11:06:59;;;;;;;2.13;1.00;;;23.30;65.90;;;;;;10448993;28;20219;-53
2023/11/01 11:12:17;;;;;;;3.97;1.30;;;23.30;65.90;;;;;;10446757;28;20211;-55
2023/11/01 11:17:23;;;;;;;3.88;1.10;;;23.20;65.90;;;;;;10450652;28;20265;-52
2023/11/01 11:23:06;;;;;;;2.45;1.10;;;23.30;65.90;;;;;;10442283;28;20196;-55
2023/11/01 11:28:11;;;;;;;3.38;1.10;;;23.20;65.80;;;;;;10450355;28;20237;-55
2023/11/01 11:33:16;;;;;;;3.65;1.15;;;23.20;65.70;;;;;;10455522;28;20196;-55
2023/11/01 11:38:32;;;;;;;2.80;1.05;;;23.20;65.70;;;;;;10454797;28;20772;-55
2023/11/01 11:44:01;;;;;;;2.30;0.88;;;23.20;65.80;;;;;;10451186;28;20277;-55
2023/11/01 11:49:08;;;;;;;2.97;1.33;;;23.20;65.80;;;;;;10452500;28;20269;-54
2023/11/01 11:54:16;;;;;;;4.47;1.05;;;23.20;65.70;;;;;;10443208;28;20221;-56
2023/11/01 11:59:21;;;;;;;2.00;1.15;;;23.30;65.90;;;;;;10449481;28;20276;-54
2023/11/01 12:04:32;;;;;;;3.55;0.98;;;23.30;65.90;;;;;;10444889;28;20749;-57
2023/11/01 12:09:38;;;;;;;2.67;0.95;;;23.20;65.80;;;;;;10445192;28;20309;-53
2023/11/01 12:14:44;;;;;;;2.15;1.00;;;23.20;65.80;;;;;;10449820;28;20336;-55
2023/11/01 12:19:49;;;;;;;7.40;1.35;;;23.20;65.90;;;;;;10415250;28;20775;-52
2023/11/01 12:24:55;;;;;;;3.45;1.30;;;23.30;66.00;;;;;;10445955;28;20224;-56
2023/11/01 12:30:00;;;;;;;3.67;1.13;;;23.30;66.00;;;;;;10435220;28;20224;-53
2023/11/01 12:35:09;;;;;;;3.47;1.27;;;23.20;65.90;;;;;;10435303;28;20295;-54
2023/11/01 12:40:16;;;;;;;5.55;1.48;;;23.30;66.00;;;;;;10433621;28;20246;-55
2023/11/01 12:45:20;;;;;;;3.65;1.52;;;23.30;66.00;;;;;;10447941;28;20590;-53
2023/11/01 12:50:27;;;;;;;4.80;1.50;;;23.30;66.00;;;;;;10451511;28;20195;-54
2023/11/01 12:55:31;;;;;;;5.35;1.30;;;23.20;65.90;;;;;;10444158;28;20224;-53
2023/11/01 13:00:34;;;;;;;3.38;1.52;;;23.30;66.00;;;;;;10447223;28;20285;-52
2023/11/01 13:05:40;;;;;;;3.00;1.52;;;23.30;66.00;;;;;;10431164;28;20292;-57
2023/11/01 13:10:43;;;;;;;4.15;1.63;;;23.30;66.00;;;;;;10427493;28;20231;-51
2023/11/01 13:15:47;;;;;;;5.80;2.20;;;23.30;66.00;;;;;;10446259;28;20840;-47
2023/11/01 13:20:52;;;;;;;5.95;2.20;;;23.40;66.00;;;;;;10367155;28;20252;-54
2023/11/01 13:25:57;;;;;;;4.70;1.92;;;23.40;65.90;;;;;;10398085;28;20224;-54
2023/11/01 13:31:00;;;;;;;5.95;1.83;;;23.40;65.90;;;;;;10399059;28;20201;-54
2023/11/01 13:36:07;;;;;;;4.40;2.05;;;23.40;65.90;;;;;;10391409;28;20598;-54
2023/11/01 13:41:11;;;;;;;5.63;2.58;;;23.40;66.00;;;;;;10392449;28;20216;-54
2023/11/01 13:46:15;;;;;;;6.55;2.25;;;23.40;66.00;;;;;;10390413;28;20255;-56
2023/11/01 13:51:20;;;;;;;6.55;2.35;;;23.40;66.10;;;;;;10399008;28;20224;-56
2023/11/01 13:56:23;;;;;;;4.47;2.20;;;23.30;66.00;;;;;;10397671;28;20224;-54
2023/11/01 14:01:27;;;;;;;5.60;2.25;;;23.30;66.00;;;;;;10406674;28;20196;-54
2023/11/01 14:06:32;;;;;;;3.95;1.70;;;23.30;66.10;;;;;;10397509;28;21888;-56
2023/11/01 14:11:36;;;;;;;5.05;1.80;;;23.30;65.90;;;;;;10399428;28;20234;-55
2023/11/01 14:16:39;;;;;;;3.92;1.60;;;23.30;65.70;;;;;;10400898;28;20678;-53
2023/11/01 14:21:44;;;;;;;3.13;1.70;;;23.30;65.50;;;;;;10401684;28;20201;-53
2023/11/01 14:26:48;;;;;;;3.47;1.55;;;23.20;65.40;;;;;;10401272;28;20240;-54
2023/11/01 14:31:53;;;;;;;4.18;1.58;;;23.20;65.30;;;;;;10399210;28;20270;-54
2023/11/01 14:36:58;;;;;;;3.83;1.38;;;23.30;65.40;;;;;;10404873;28;20636;-56
2023/11/01 14:42:02;;;;;;;4.13;1.50;;;23.30;65.40;;;;;;10395563;28;20696;-54
2023/11/01 14:47:06;;;;;;;3.95;1.65;;;23.30;65.40;;;;;;10415450;28;20224;-58
2023/11/01 14:52:11;;;;;;;3.45;1.70;;;23.30;65.40;;;;;;10436369;28;20228;-56
2023/11/01 14:57:14;;;;;;;4.55;1.45;;;23.20;65.30;;;;;;10447778;28;20250;-55
2023/11/01 15:02:18;;;;;;;4.47;1.60;;;23.30;65.40;;;;;;10431392;28;20205;-57
2023/11/01 15:07:23;;;;;;;3.17;1.55;;;23.20;65.30;;;;;;10424822;28;20216;-57
2023/11/01 15:12:26;;;;;;;4.75;1.58;;;23.30;65.40;;;;;;10409518;28;20212;-55
2023/11/01 15:17:30;;;;;;;2.92;1.55;;;23.20;65.30;;;;;;10407081;28;20229;-54
2023/11/01 15:22:35;;;;;;;6.15;1.88;;;23.20;65.30;;;;;;10402594;28;20740;-56
2023/11/01 15:27:39;;;;;;;2.85;1.52;;;23.20;65.20;;;;;;10381394;28;20252;-54
2023/11/01 15:32:42;;;;;;;3.95;1.33;;;23.20;65.30;;;;;;10380329;28;20833;-56
2023/11/01 15:37:48;;;;;;;5.32;1.48;;;23.20;65.30;;;;;;10379264;28;20305;-54
2023/11/01 15:42:51;;;;;;;3.72;1.58;;;23.20;65.30;;;;;;10393083;28;20232;-54
2023/11/01 15:47:55;;;;;;;2.97;1.30;;;23.20;66.10;;;;;;10401274;28;20601;-56
2023/11/01 15:53:00;;;;;;;3.88;1.70;;;23.20;65.30;;;;;;10396805;28;20671;-54
2023/11/01 15:58:04;;;;;;;2.75;1.30;;;23.20;65.30;;;;;;10403724;28;20305;-53
2023/11/01 16:03:07;;;;;;;2.92;1.48;;;23.20;65.30;;;;;;10391914;28;20200;-52
2023/11/01 16:08:13;;;;;;;4.03;1.35;;;23.20;65.30;;;;;;10392982;28;20247;-52
2023/11/01 16:13:16;;;;;;;3.45;1.50;;;23.20;65.30;;;;;;10393873;28;20721;-53
2023/11/01 16:18:20;;;;;;;3.42;1.50;;;23.20;65.30;;;;;;10395526;28;20239;-55
2023/11/01 16:23:26;;;;;;;3.08;1.42;;;23.20;65.30;;;;;;10399058;28;20208;-54
2023/11/01 16:28:29;;;;;;;3.65;1.50;;;23.20;65.30;;;;;;10398545;28;20715;-54
2023/11/01 16:33:33;;;;;;;2.40;1.15;;;23.20;65.30;;;;;;10401042;28;20208;-56
2023/11/01 16:38:38;;;;;;;4.43;1.33;;;23.20;65.30;;;;;;10396195;28;20719;-55
2023/11/01 16:43:42;;;;;;;4.65;1.55;;;23.20;65.30;;;;;;10407613;28;20709;-56
2023/11/01 16:48:46;;;;;;;2.45;1.02;;;23.20;65.30;;;;;;10397126;28;20236;-53
2023/11/01 16:53:51;;;;;;;2.97;1.27;;;23.20;65.30;;;;;;10398227;28;20290;-56
2023/11/01 16:58:55;;;;;;;5.60;1.42;;;23.20;65.30;;;;;;10399351;28;20248;-56
2023/11/01 17:03:59;;;;;;;3.38;1.40;;;23.20;65.30;;;;;;10405856;28;20349;-54
2023/11/01 17:09:05;;;;;;;3.00;1.63;;;23.20;66.10;;;;;;10443381;28;20227;-54
2023/11/01 17:14:09;;;;;;;2.30;1.38;;;23.20;65.30;;;;;;10439742;28;20199;-54
2023/11/01 17:19:13;;;;;;;3.58;1.45;;;23.20;65.30;;;;;;10436033;28;20254;-55
2023/11/01 17:24:23;;;;;;;3.47;1.63;;;23.20;65.40;;;;;;10439872;28;20208;-54
2023/11/01 17:29:31;;;;;;;3.97;1.73;;;23.20;65.40;;;;;;10425078;28;20227;-56
2023/11/01 17:34:34;;;;;;;3.00;1.50;;;23.20;65.40;;;;;;10436615;28;20368;-56
2023/11/01 17:39:41;;;;;;;3.05;1.50;;;23.20;65.40;;;;;;10436662;28;20259;-56
2023/11/01 17:44:47;;;;;;;2.13;1.48;;;23.20;66.20;;;;;;10427945;28;20705;-57
2023/11/01 17:49:55;;;;;;;2.33;1.48;;;23.20;65.30;;;;;;10434090;28;20312;-55
2023/11/01 17:55:02;;;;;;;2.85;1.38;;;23.20;65.30;;;;;;10436141;28;20667;-55
2023/11/01 18:00:07;;;;;;;3.35;1.60;;;23.20;65.30;;;;;;10437231;28;20255;-53
2023/11/01 18:05:31;;;;;;;3.95;1.63;;;23.20;65.40;;;;;;10436525;28;20254;-54
2023/11/01 18:10:41;;;;;;;2.40;1.50;;;23.20;65.40;;;;;;10439594;28;20868;-54
2023/11/01 18:15:45;;;;;;;3.05;1.60;;;23.20;65.30;;;;;;10439033;28;20258;-60
2023/11/01 18:20:49;;;;;;;3.25;1.60;;;23.20;65.30;;;;;;10442541;28;20694;-54
2023/11/01 18:26:11;;;;;;;7.18;1.85;;;23.20;65.30;;;;;;10437477;28;20251;-55
2023/11/01 18:31:17;;;;;;;2.70;1.50;;;23.20;65.40;;;;;;10441603;28;20242;-53
2023/11/01 18:36:21;;;;;;;4.30;1.50;;;23.20;65.40;;;;;;10442134;28;20305;-55
2023/11/01 18:41:30;;;;;;;8.07;1.90;;;23.30;65.60;;;;;;10433059;28;20250;-58
2023/11/01 18:46:35;;;;;;;4.05;1.52;;;23.20;65.40;;;;;;10439564;28;20273;-54
2023/11/01 18:51:56;;;;;;;2.55;1.60;;;23.20;65.50;;;;;;10436883;28;20283;-54
2023/11/01 18:57:01;;;;;;;5.70;1.65;;;23.20;65.50;;;;;;10444189;28;20247;-57
2023/11/01 19:02:10;;;;;;;3.20;1.40;;;23.20;65.50;;;;;;10430030;28;20251;-54
2023/11/01 19:07:15;;;;;;;4.00;1.50;;;23.20;65.50;;;;;;10421835;28;20289;-62
2023/11/01 19:12:27;;;;;;;16.20;2.53;;;23.20;65.50;;;;;;10424074;28;20220;-60
2023/11/01 19:17:31;;;;;;;8.60;1.95;;;23.20;65.60;;;;;;10435972;28;20254;-57
2023/11/01 19:22:35;;;;;;;4.53;1.58;;;23.20;65.50;;;;;;10437495;28;20254;-59
2023/11/01 19:27:40;;;;;;;4.15;1.60;;;23.30;65.60;;;;;;10434158;28;20281;-59
2023/11/01 19:32:44;;;;;;;5.32;1.88;;;23.30;65.70;;;;;;10444020;28;20277;-61
2023/11/01 19:37:48;;;;;;;4.25;1.65;;;23.30;65.70;;;;;;10438010;28;20258;-56
2023/11/01 19:42:53;;;;;;;5.88;1.88;;;23.30;65.70;;;;;;10429845;28;20308;-60
2023/11/01 19:47:57;;;;;;;4.03;1.52;;;23.30;65.70;;;;;;10428613;28;20254;-58
2023/11/01 19:53:01;;;;;;;4.43;1.55;;;23.30;65.70;;;;;;10436880;28;20235;-59
2023/11/01 19:58:06;;;;;;;4.25;1.50;;;23.20;65.60;;;;;;10435722;28;20277;-59
2023/11/01 20:03:10;;;;;;;7.65;1.67;;;23.20;65.60;;;;;;10428860;28;20276;-57
2023/11/01 20:08:14;;;;;;;5.78;1.40;;;23.30;66.50;;;;;;10443948;28;20254;-62
2023/11/01 20:13:18;;;;;;;3.53;1.48;;;23.20;65.60;;;;;;10439458;28;20243;-57
2023/11/01 20:18:22;;;;;;;2.88;1.30;;;23.20;65.60;;;;;;10429401;28;20312;-60
2023/11/01 20:23:26;;;;;;;5.25;1.60;;;23.20;65.60;;;;;;10431294;28;20297;-59
2023/11/01 20:28:31;;;;;;;3.47;1.50;;;23.30;65.70;;;;;;10435597;28;20300;-56
2023/11/01 20:33:34;;;;;;;3.05;1.10;;;23.20;65.60;;;;;;10430547;28;20281;-61
2023/11/01 20:38:39;;;;;;;2.38;1.08;;;23.30;65.70;;;;;;10429164;28;20334;-60
2023/11/01 20:43:44;;;;;;;3.22;1.30;;;23.30;65.70;;;;;;10432158;28;20251;-59
2023/11/01 20:48:48;;;;;;;4.72;1.52;;;23.30;65.70;;;;;;10426843;28;20305;-62
2023/11/01 20:53:53;;;;;;;3.60;1.52;;;23.30;65.70;;;;;;10427385;28;20219;-62
2023/11/01 20:58:58;;;;;;;3.50;1.50;;;23.30;65.70;;;;;;10428512;28;20288;-58
2023/11/01 21:04:02;;;;;;;6.15;1.83;;;23.20;65.60;;;;;;10426637;28;20350;-61
2023/11/01 21:09:06;;;;;;;4.10;1.35;;;23.20;65.60;;;;;;10429318;28;20263;-56
2023/11/01 21:14:11;;;;;;;3.10;1.30;;;23.20;65.60;;;;;;10434232;28;20980;-57
2023/11/01 21:19:15;;;;;;;1.83;1.00;;;23.30;65.70;;;;;;10435553;28;20246;-60
2023/11/01 21:24:20;;;;;;;3.30;1.42;;;23.30;65.70;;;;;;10431181;28;20667;-60
2023/11/01 21:29:26;;;;;;;4.13;1.40;;;23.20;65.60;;;;;;10433155;28;20243;-59
2023/11/01 21:34:30;;;;;;;2.70;1.15;;;23.20;65.60;;;;;;10426997;28;20239;-60
2023/11/01 21:39:35;;;;;;;2.30;1.10;;;23.30;65.70;;;;;;10423726;28;20267;-58
2023/11/01 21:44:42;;;;;;;2.22;1.42;;;23.20;65.60;;;;;;10428504;28;20856;-58
2023/11/01 21:49:46;;;;;;;4.00;1.30;;;23.20;65.60;;;;;;10431359;28;20708;-62
2023/11/01 21:54:51;;;;;;;1.60;1.10;;;23.20;65.50;;;;;;10426757;28;20261;-58
2023/11/01 21:59:59;;;;;;;3.45;1.35;;;23.20;65.50;;;;;;10429124;28;20911;-61
2023/11/01 22:05:04;;;;;;;1.30;0.85;;;23.20;65.60;;;;;;10428392;28;20664;-61
2023/11/01 22:10:15;;;;;;;2.17;0.98;;;23.20;65.50;;;;;;10428590;28;20499;-60
2023/11/01 22:15:23;;;;;;;1.90;1.15;;;23.20;65.60;;;;;;10429334;28;20727;-63
2023/11/01 22:20:26;;;;;;;1.88;1.10;;;23.20;65.50;;;;;;10430167;28;20296;-61
2023/11/01 22:25:34;;;;;;;2.40;1.27;;;23.20;65.50;;;;;;10431924;28;20309;-59
2023/11/01 22:30:39;;;;;;;2.15;1.10;;;23.20;65.50;;;;;;10424716;28;20220;-61
2023/11/01 22:35:45;;;;;;;3.00;1.10;;;23.20;65.50;;;;;;10426145;28;20673;-60
2023/11/01 22:40:50;;;;;;;2.72;1.20;;;23.20;65.50;;;;;;10427869;28;20711;-62
2023/11/01 22:45:57;;;;;;;2.65;1.20;;;23.20;65.50;;;;;;10433311;28;20340;-62
2023/11/01 22:51:00;;;;;;;1.27;0.80;;;23.20;65.50;;;;;;10432564;28;20309;-60
2023/11/01 22:56:05;;;;;;;2.83;1.40;;;23.20;65.50;;;;;;10430629;28;20247;-60
2023/11/01 23:01:10;;;;;;;2.20;0.95;;;23.20;65.50;;;;;;10408691;28;20339;-57
2023/11/01 23:06:13;;;;;;;1.85;0.98;;;23.20;65.60;;;;;;10429616;28;20255;-57
2023/11/01 23:11:17;;;;;;;2.67;1.10;;;23.20;65.50;;;;;;10444300;28;20212;-60
2023/11/01 23:16:22;;;;;;;1.48;1.00;;;23.20;65.50;;;;;;10445193;28;20261;-59
2023/11/01 23:21:25;;;;;;;1.95;0.90;;;23.20;65.50;;;;;;10437981;28;20687;-58
2023/11/01 23:26:52;;;;;;;1.63;1.13;;;23.20;65.50;;;;;;10440518;28;20308;-60
2023/11/01 23:31:57;;;;;;;2.33;1.23;;;23.20;65.50;;;;;;10434158;28;20282;-61
2023/11/01 23:37:01;;;;;;;3.08;1.20;;;23.20;65.50;;;;;;10440410;28;20247;-61
2023/11/01 23:42:05;;;;;;;1.10;0.75;;;23.20;65.40;;;;;;10436748;28;20255;-61
2023/11/01 23:47:12;;;;;;;2.75;1.20;;;23.20;65.50;;;;;;10435095;28;20293;-57
2023/11/01 23:52:18;;;;;;;1.25;0.80;;;23.20;65.40;;;;;;10432224;28;20265;-61
2023/11/01 23:57:23;;;;;;;1.45;0.85;;;23.20;65.40;;;;;;10440488;28;20251;-60
